Time;durP1;ratioP1;P1;durP2;ratioP2;P2;SDS_P1;SDS_P2;PMS_P1;PMS_P2;Temp;Humidity;BMP_temperature;BMP_pressure;BME280_temperature;BME280_humidity;BME280_pressure;Samples;Min_cycle;Max_cycle;Signal;HPM_P1;HPM_P2
2021/07/23 00:23:33;;;;;;;31.60;13.93;;;;;;;14.63;91.94;101376.91;6275084;22;20341;-82
2021/07/23 00:41:31;;;;;;;30.55;14.10;;;;;;;14.65;92.42;101427.13;6253155;22;20016;-82
2021/07/23 00:43:57;;;;;;;39.97;15.57;;;;;;;14.58;92.38;101418.19;6275445;22;20345;-82
2021/07/23 00:51:33;;;;;;;34.08;14.18;;;;;;;14.28;92.41;101385.28;6222498;22;20097;-79
2021/07/23 01:01:44;;;;;;;36.85;15.55;;;;;;;14.26;92.67;101407.13;6258391;22;20011;-83
2021/07/23 01:04:10;;;;;;;33.38;14.68;;;;;;;14.39;92.88;101421.72;6279307;22;19995;-82
2021/07/23 01:06:36;;;;;;;33.28;14.93;;;;;;;14.20;92.81;101393.59;6304800;22;20240;-82
2021/07/23 01:09:02;;;;;;;39.65;17.25;;;;;;;14.08;92.69;101380.72;6304990;22;20008;-81
2021/07/23 01:11:28;;;;;;;28.83;15.20;;;;;;;14.18;92.71;101409.22;6304843;22;20003;-82
2021/07/23 01:19:05;;;;;;;35.63;15.55;;;;;;;14.26;92.73;101446.91;6244191;23;20475;-81
2021/07/23 01:21:32;;;;;;;33.45;15.27;;;;;;;14.32;92.71;101460.44;6244204;23;19993;-81
2021/07/23 01:24:01;;;;;;;41.00;16.73;;;;;;;14.08;93.02;101428.59;6243824;23;20008;-81
2021/07/23 01:26:27;;;;;;;39.70;16.33;;;;;;;14.08;92.79;101428.59;6218376;23;20198;-81
2021/07/23 01:28:53;;;;;;;36.42;15.73;;;;;;;14.33;93.01;101463.97;6244411;23;20028;-82
2021/07/23 01:31:19;;;;;;;32.65;15.73;;;;;;;14.37;92.79;101489.63;6217476;23;20004;-81
2021/07/23 01:33:45;;;;;;;35.58;16.42;;;;;;;13.95;92.95;101415.88;6217375;23;20000;-81
2021/07/23 01:36:10;;;;;;;31.65;15.95;;;;;;;13.99;93.04;101427.94;6217567;23;20024;-81
2021/07/23 01:38:41;;;;;;;40.15;16.33;;;;;;;13.91;92.75;101417.34;6243534;23;19997;-82
2021/07/23 01:41:06;;;;;;;35.60;16.60;;;;;;;14.08;93.40;101440.25;6217254;23;20003;-81
2021/07/23 01:43:33;;;;;;;32.85;16.38;;;;;;;14.51;93.17;101510.28;6242724;23;19996;-81
2021/07/23 01:45:59;;;;;;;33.40;16.65;;;;;;;14.23;93.04;101461.69;6242229;23;20008;-82
2021/07/23 01:48:25;;;;;;;39.03;16.15;;;;;;;14.16;93.00;101444.59;6242871;23;19988;-82
2021/07/23 02:01:11;;;;;;;31.55;16.42;;;;;;;14.15;93.10;101455.66;6289407;22;20219;-82
2021/07/23 02:03:37;;;;;;;32.03;15.23;;;;;;;13.97;93.13;101430.03;6297573;22;19996;-81
2021/07/23 02:06:03;;;;;;;33.58;16.13;;;;;;;13.94;93.47;101429.59;6304949;22;20016;-82
2021/07/23 02:08:29;;;;;;;31.50;16.25;;;;;;;14.42;93.28;101513.34;6230882;22;20038;-81
2021/07/23 02:10:54;;;;;;;33.58;17.08;;;;;;;13.80;93.26;101423.34;6274135;22;20012;-81
2021/07/23 02:13:20;;;;;;;28.98;14.80;;;;;;;13.99;93.25;101459.59;6273801;22;20006;-81
2021/07/23 02:15:46;;;;;;;28.98;15.50;;;;;;;14.62;93.22;101548.59;6273928;22;20032;-82
2021/07/23 02:25:57;;;;;;;31.10;15.10;;;;;;;13.83;93.26;101431.88;6303736;22;20026;-81
2021/07/23 02:28:23;;;;;;;33.70;15.75;;;;;;;13.79;93.71;101421.69;6277034;22;20011;-81
2021/07/23 02:30:49;;;;;;;32.35;16.17;;;;;;;14.16;93.62;101477.09;6277211;22;20313;-81
2021/07/23 02:33:15;;;;;;;33.97;15.50;;;;;;;14.05;93.40;101470.41;6277488;22;20384;-81
2021/07/23 02:35:40;;;;;;;34.80;16.80;;;;;;;13.77;93.36;101424.56;6304055;22;20004;-81
2021/07/23 02:38:06;;;;;;;37.90;15.68;;;;;;;14.61;93.60;101571.31;6304059;22;20018;-81
2021/07/23 02:40:32;;;;;;;35.22;16.95;;;;;;;13.82;93.33;101448.31;6303648;22;20006;-81
2021/07/23 02:42:57;;;;;;;35.33;16.35;;;;;;;14.04;93.69;101481.47;6303651;22;19991;-82
2021/07/23 02:45:23;;;;;;;33.67;16.63;;;;;;;13.75;93.46;101434.78;6277510;22;20011;-82
2021/07/23 02:47:50;;;;;;;38.38;17.25;;;;;;;13.79;93.36;101438.72;6303195;22;19999;-82
2021/07/23 02:50:15;;;;;;;33.10;16.05;;;;;;;14.67;93.66;101575.88;6303791;22;20031;-81
2021/07/23 02:52:41;;;;;;;34.58;17.13;;;;;;;13.96;93.48;101463.53;6277517;22;20011;-81
2021/07/23 02:55:07;;;;;;;31.45;15.50;;;;;;;14.30;93.50;101521.25;6276088;22;20026;-82
2021/07/23 02:57:33;;;;;;;29.30;15.75;;;;;;;14.08;93.60;101472.72;6278054;22;20022;-81
2021/07/23 03:05:07;;;;;;;28.63;15.43;;;;;;;14.20;93.57;101477.50;6242152;23;20108;-81
2021/07/23 03:07:33;;;;;;;32.40;15.68;;;;;;;14.60;93.47;101520.88;6242629;23;20011;-81
2021/07/23 03:09:59;;;;;;;32.17;14.50;;;;;;;14.33;93.35;101491.06;6242048;23;20012;-81
2021/07/23 03:12:25;;;;;;;27.33;14.35;;;;;;;14.09;93.04;101450.00;6242434;23;20008;-81
2021/07/23 03:14:50;;;;;;;30.17;14.05;;;;;;;14.20;92.74;101458.56;6242147;23;19992;-82
2021/07/23 03:17:16;;;;;;;28.23;14.27;;;;;;;14.04;92.94;101433.59;6242222;23;20004;-81
2021/07/23 03:19:42;;;;;;;28.80;13.60;;;;;;;14.45;92.98;101486.69;6242506;23;20008;-81
2021/07/23 03:24:43;;;;;;;27.23;14.57;;;;;;;14.84;93.03;101570.91;6253889;22;20031;-81
2021/07/23 03:27:10;;;;;;;30.63;15.05;;;;;;;14.21;92.92;101469.19;6272443;22;19996;-81
2021/07/23 03:29:37;;;;;;;31.60;15.70;;;;;;;14.37;92.91;101505.88;6243324;23;20067;-81
2021/07/23 03:32:03;;;;;;;30.48;14.43;;;;;;;14.22;93.10;101478.97;6241578;23;19989;-81
2021/07/23 03:34:29;;;;;;;26.88;14.45;;;;;;;14.17;92.97;101470.66;6240917;23;19997;-82
2021/07/23 03:36:55;;;;;;;28.13;13.68;;;;;;;14.13;93.12;101471.25;6241730;23;20035;-82
2021/07/23 03:39:20;;;;;;;29.40;13.75;;;;;;;14.93;93.20;101594.91;6241887;23;20031;-82
2021/07/23 03:41:46;;;;;;;29.08;13.88;;;;;;;14.47;92.79;101498.16;6241270;23;20068;-81
2021/07/23 03:44:12;;;;;;;27.13;13.60;;;;;;;14.52;91.85;101455.06;6242728;23;19996;-82
2021/07/23 03:46:38;;;;;;;27.80;14.73;;;;;;;14.65;91.27;101454.22;6242410;23;20017;-81
2021/07/23 03:49:03;;;;;;;26.15;13.90;;;;;;;14.97;91.65;101482.31;6241967;23;19997;-81
2021/07/23 03:51:30;;;;;;;27.40;14.02;;;;;;;15.33;91.10;101527.06;6240997;23;20020;-81
2021/07/23 03:53:56;;;;;;;30.58;15.20;;;;;;;15.54;89.73;101468.97;6242480;23;20017;-82
2021/07/23 03:56:22;;;;;;;32.22;15.50;;;;;;;16.52;88.50;101551.94;6242620;23;20013;-81
2021/07/23 03:58:50;;;;;;;28.20;14.70;;;;;;;16.11;87.50;101448.22;6241511;23;20402;-81
2021/07/23 04:01:16;;;;;;;29.73;14.77;;;;;;;16.25;87.44;101461.69;6242884;23;20039;-82
2021/07/23 04:03:42;;;;;;;27.25;14.80;;;;;;;16.66;87.50;101527.19;6241589;23;19992;-82
2021/07/23 04:06:07;;;;;;;32.17;14.65;;;;;;;16.25;87.37;101457.06;6242264;23;20044;-80
2021/07/23 04:08:34;;;;;;;28.23;15.00;;;;;;;16.91;87.98;101578.00;6241611;23;20012;-80
2021/07/23 04:11:00;;;;;;;31.77;14.93;;;;;;;15.87;88.51;101451.72;6242291;23;20306;-81
2021/07/23 04:13:26;;;;;;;29.17;13.32;;;;;;;16.16;88.90;101523.59;6242071;23;20032;-82
2021/07/23 04:15:51;;;;;;;25.33;13.70;;;;;;;16.05;89.11;101529.69;6240612;23;20068;-81
2021/07/23 04:18:17;;;;;;;31.17;13.35;;;;;;;15.80;89.49;101495.19;6241660;23;19999;-81
2021/07/23 04:20:43;;;;;;;32.38;14.73;;;;;;;15.45;89.28;101467.56;6242526;23;19984;-81
2021/07/23 06:07:38;;;;;;;21.85;11.15;;;;;;;18.99;70.30;101480.56;6198948;22;20066;31
2021/07/23 06:37:49;;;;;;;18.65;10.63;;;;;;;20.98;67.25;101606.53;6184984;23;20735;31
2021/07/23 06:40:15;;;;;;;23.50;11.93;;;;;;;20.06;67.13;101441.75;6210745;23;20001;-81
2021/07/23 07:04:54;;;;;;;24.70;12.23;;;;;;;20.99;67.01;101598.09;6218037;22;20016;31
2021/07/23 07:07:52;;;;;;;25.77;11.77;;;;;;;20.74;68.01;101598.50;6209076;22;20743;31
2021/07/23 07:10:18;;;;;;;22.05;11.57;;;;;;;19.42;67.95;101424.72;6187238;23;20066;-81
2021/07/23 07:33:18;;;;;;;19.95;11.93;;;;;;;18.25;71.92;101437.38;6237363;22;20024;-81
2021/07/23 07:43:29;;;;;;;19.75;11.98;;;;;;;19.01;71.29;101492.06;6209163;22;20012;-80
2021/07/23 08:04:01;;;;;;;20.63;11.90;;;;;;;18.47;71.89;101472.22;6236081;22;20019;-80
2021/07/23 08:09:05;;;;;;;20.20;11.68;;;;;;;18.54;72.62;101486.56;6254796;22;20012;-81
2021/07/23 08:11:37;;;;;;;20.65;12.18;;;;;;;18.42;72.01;101469.38;6270522;23;20004;-81
2021/07/23 08:16:38;;;;;;;19.83;11.27;;;;;;;18.33;72.56;101462.63;6227918;22;20050;-79
2021/07/23 08:26:49;;;;;;;20.88;12.27;;;;;;;18.73;72.60;101531.78;6241599;22;20038;-79
2021/07/23 08:31:50;;;;;;;21.52;11.73;;;;;;;19.09;72.35;101579.00;6204848;22;20039;-79
2021/07/23 08:34:16;;;;;;;20.60;11.65;;;;;;;18.33;72.23;101455.28;6206577;22;20088;-79
2021/07/23 08:36:42;;;;;;;21.85;12.73;;;;;;;18.82;73.14;101543.16;6243882;23;20084;-82
2021/07/23 09:07:30;;;;;;;21.25;10.70;;;;;;;18.66;71.85;101481.97;6157724;22;1592705;-79
2021/07/23 09:10:15;;;;;;;22.10;11.10;;;;;;;19.24;71.72;101571.16;6273809;22;20000;-81
2021/07/23 09:35:53;;;;;;;20.05;10.73;;;;;;;18.56;72.36;101473.53;6251225;22;20021;-81
2021/07/23 09:43:29;;;;;;;16.80;11.02;;;;;;;19.62;73.10;101646.25;6215757;22;20159;-78
2021/07/23 21:51:48;;;;;;;18.10;9.27;;;;;;;16.42;90.08;101585.03;6211144;22;20024;31
